Map

Track Data

SID SEASON NUMBER BASIN SUBBASIN NAME ISO_TIME NATURE LAT LON WMO_WIND WMO_PRES WMO_AGENCY TRACK_TYPE DIST2LAND LANDFALL IFLAG USA_AGENCY USA_ATCF_ID USA_LAT USA_LON USA_RECORD USA_STATUS USA_WIND USA_PRES USA_SSHS USA_R34_NE USA_R34_SE USA_R34_SW USA_R34_NW USA_R50_NE USA_R50_SE USA_R50_SW USA_R50_NW USA_R64_NE USA_R64_SE USA_R64_SW USA_R64_NW USA_POCI USA_ROCI USA_RMW USA_EYE TOKYO_LAT TOKYO_LON TOKYO_GRADE TOKYO_WIND TOKYO_PRES TOKYO_R50_DIR TOKYO_R50_LONG TOKYO_R50_SHORT TOKYO_R30_DIR TOKYO_R30_LONG TOKYO_R30_SHORT TOKYO_LAND CMA_LAT CMA_LON CMA_CAT CMA_WIND CMA_PRES HKO_LAT HKO_LON HKO_CAT HKO_WIND HKO_PRES NEWDELHI_LAT NEWDELHI_LON NEWDELHI_GRADE NEWDELHI_WIND NEWDELHI_PRES NEWDELHI_CI NEWDELHI_DP NEWDELHI_POCI REUNION_LAT REUNION_LON REUNION_TYPE REUNION_WIND REUNION_PRES REUNION_TNUM REUNION_CI REUNION_RMW REUNION_R34_NE REUNION_R34_SE REUNION_R34_SW REUNION_R34_NW REUNION_R50_NE REUNION_R50_SE REUNION_R50_SW REUNION_R50_NW REUNION_R64_NE REUNION_R64_SE REUNION_R64_SW REUNION_R64_NW BOM_LAT BOM_LON BOM_TYPE BOM_WIND BOM_PRES BOM_TNUM BOM_CI BOM_RMW BOM_R34_NE BOM_R34_SE BOM_R34_SW BOM_R34_NW BOM_R50_NE BOM_R50_SE BOM_R50_SW BOM_R50_NW BOM_R64_NE BOM_R64_SE BOM_R64_SW BOM_R64_NW BOM_ROCI BOM_POCI BOM_EYE BOM_POS_METHOD BOM_PRES_METHOD NADI_LAT NADI_LON NADI_CAT NADI_WIND NADI_PRES WELLINGTON_LAT WELLINGTON_LON WELLINGTON_WIND WELLINGTON_PRES DS824_LAT DS824_LON DS824_STAGE DS824_WIND DS824_PRES TD9636_LAT TD9636_LON TD9636_STAGE TD9636_WIND TD9636_PRES TD9635_LAT TD9635_LON TD9635_WIND TD9635_PRES TD9635_ROCI NEUMANN_LAT NEUMANN_LON NEUMANN_CLASS NEUMANN_WIND NEUMANN_PRES MLC_LAT MLC_LON MLC_CLASS MLC_WIND MLC_PRES USA_GUST BOM_GUST BOM_GUST_PER REUNION_GUST REUNION_GUST_PER USA_SEAHGT USA_SEARAD_NE USA_SEARAD_SE USA_SEARAD_SW USA_SEARAD_NW STORM_SPEED STORM_DIR
1934260N20089 1934 55 NI BB NOT_NAMED 1934-09-17 00:00:00 TS 20.0000 89.1000 main 178 178 _________O____ -1 20.0000 89.1000 TC 30 0 0
1934260N20089 1934 55 NI BB NOT_NAMED 1934-09-17 03:00:00 TS 20.0000 89.1000 main 178 178 _________PO___ -1 20.0000 89.1000 TC 30 20.0000 89.1000 1 0 0
1934260N20089 1934 55 NI BB NOT_NAMED 1934-09-17 06:00:00 TS 20.0000 89.1000 main 178 178 _________OP___ -1 20.0000 89.1000 TC 30 20.0000 89.1000 1 0 0
1934260N20089 1934 55 NI BB NOT_NAMED 1934-09-17 09:00:00 TS 20.0000 89.1000 main 178 178 _________PP___ -1 20.0000 89.1000 TC 30 20.0000 89.1000 1 0 0
1934260N20089 1934 55 NI BB NOT_NAMED 1934-09-17 12:00:00 TS 20.0000 89.1000 main 178 178 _________OP___ -1 20.0000 89.1000 TC 30 20.0000 89.1000 1 0 0
1934260N20089 1934 55 NI BB NOT_NAMED 1934-09-17 15:00:00 TS 20.0000 89.1000 main 178 178 _________PO___ -1 20.0000 89.1000 TC 30 20.0000 89.1000 1 0 0
1934260N20089 1934 55 NI BB NOT_NAMED 1934-09-17 18:00:00 TS 20.0000 89.1000 main 178 178 _________OP___ -1 20.0000 89.1000 TC 30 20.0000 89.1000 1 0 0
1934260N20089 1934 55 NI BB NOT_NAMED 1934-09-17 21:00:00 TS 20.0000 89.1000 main 178 178 _________PP___ -1 20.0000 89.1000 TC 30 20.0000 89.1000 1 0 0
1934260N20089 1934 55 NI BB NOT_NAMED 1934-09-18 00:00:00 TS 20.0000 89.1000 main 178 178 _________OP___ -1 20.0000 89.1000 TC 30 20.0000 89.1000 1 0 0
1934260N20089 1934 55 NI BB NOT_NAMED 1934-09-18 03:00:00 TS 20.0000 89.1000 main 178 178 _________PO___ -1 20.0000 89.1000 TC 30 20.0000 89.1000 1 0 0
1934260N20089 1934 55 NI BB NOT_NAMED 1934-09-18 06:00:00 TS 20.0000 89.1000 main 178 178 _________OP___ -1 20.0000 89.1000 TC 30 20.0000 89.1000 1 0 0
1934260N20089 1934 55 NI BB NOT_NAMED 1934-09-18 09:00:00 TS 20.0000 89.1000 main 178 178 _________PP___ -1 20.0000 89.1000 TC 30 20.0000 89.1000 1 0 0
1934260N20089 1934 55 NI BB NOT_NAMED 1934-09-18 12:00:00 TS 20.0000 89.1000 main 178 178 _________OP___ -1 20.0000 89.1000 TC 30 20.0000 89.1000 1 0 0
1934260N20089 1934 55 NI BB NOT_NAMED 1934-09-18 15:00:00 TS 20.0000 89.1000 main 178 178 _________PO___ -1 20.0000 89.1000 TC 30 20.0000 89.1000 1 0 0
1934260N20089 1934 55 NI BB NOT_NAMED 1934-09-18 18:00:00 TS 19.9918 89.1182 main 178 178 _________OP___ -1 20.0000 89.1000 TC 30 19.9837 89.1365 1 0 118
1934260N20089 1934 55 NI BB NOT_NAMED 1934-09-18 21:00:00 TS 19.9811 89.1449 main 178 178 _________PP___ -1 19.9925 89.1225 TC 30 19.9698 89.1673 1 0 0
1934260N20089 1934 55 NI BB NOT_NAMED 1934-09-19 00:00:00 TS 19.9855 89.1322 main 178 178 _________OP___ -1 20.0000 89.1000 TC 30 19.9711 89.1645 1 1 290
1934260N20089 1934 55 NI BB NOT_NAMED 1934-09-19 03:00:00 TS 20.0137 89.0475 main 178 167 _________PO___ -1 20.0274 88.9949 TC 31 20.0000 89.1000 1 3 292
1934260N20089 1934 55 NI BB NOT_NAMED 1934-09-19 06:00:00 TS 20.0837 88.8699 main 167 156 _________OP___ -1 20.1000 88.8000 TC 32 20.0673 88.9398 1 4 294
1934260N20089 1934 55 NI BB NOT_NAMED 1934-09-19 09:00:00 TS 20.1989 88.6126 main 156 142 _________PP___ -1 20.2351 88.5076 TC 33 20.1627 88.7176 1 6 297
1934260N20089 1934 55 NI BB NOT_NAMED 1934-09-19 12:00:00 TS 20.3384 88.3308 main 142 116 _________OP___ -1 20.4000 88.2000 TC 34 20.2767 88.4616 1 6 300
1934260N20089 1934 55 NI BB NOT_NAMED 1934-09-19 15:00:00 TS 20.4787 88.0962 main 116 94 _________PO___ -1 20.5574 87.9924 TC 33 20.4000 88.2000 2 5 304
1934260N20089 1934 55 NI BB NOT_NAMED 1934-09-19 18:00:00 TS 20.6087 87.9056 main 94 72 _________OP___ -1 20.7000 87.8000 TC 32 20.5173 88.0113 2 4 303
1934260N20089 1934 55 NI BB NOT_NAMED 1934-09-19 21:00:00 TS 20.7208 87.7022 main 72 51 _________PP___ -1 20.7998 87.5873 TC 31 20.6417 87.8170 2 5 298
1934260N20089 1934 55 NI BB NOT_NAMED 1934-09-20 00:00:00 TS 20.8351 87.4447 main 41 23 _________OP___ -1 20.9000 87.3000 TC 30 20.7703 87.5893 2 6 294
1934260N20089 1934 55 NI BB NOT_NAMED 1934-09-20 03:00:00 TS 20.9750 87.0901 main 23 0 _________PO___ -1 21.0501 86.8801 TC 30 20.9000 87.3000 1 8 291
1934260N20089 1934 55 NI BB NOT_NAMED 1934-09-20 06:00:00 TS 21.1126 86.6614 main 0 0 _________OP___ -1 21.2000 86.4000 TC 30 21.0252 86.9228 1 9 287
1934260N20089 1934 55 NI BB NOT_NAMED 1934-09-20 09:00:00 TS 21.2287 86.2199 main 0 0 _________PP___ -1 21.3073 85.9574 TC 30 21.1502 86.4824 1 9 285
1934260N20089 1934 55 NI BB NOT_NAMED 1934-09-20 12:00:00 TS 21.3375 85.7504 main 0 0 _________OP___ -1 21.4000 85.5000 TC 30 21.2750 86.0008 1 9 284
1934260N20089 1934 55 NI BB NOT_NAMED 1934-09-20 15:00:00 TS 21.4462 85.2537 main 0 0 _________PO___ -1 21.4924 85.0074 TC 30 21.4000 85.5000 1 10 284
1934260N20089 1934 55 NI BB NOT_NAMED 1934-09-20 18:00:00 TS 21.5646 84.7471 main 0 0 _________OP___ -1 21.6000 84.5000 TC 30 21.5292 84.9941 1 10 285
1934260N20089 1934 55 NI BB NOT_NAMED 1934-09-20 21:00:00 TS 21.7039 84.2313 main 0 0 _________PP___ -1 21.7500 83.9851 TC 30 21.6578 84.4776 1 10 286
1934260N20089 1934 55 NI BB NOT_NAMED 1934-09-21 00:00:00 TS 21.8412 83.7361 main 0 0 _________OP___ -1 21.9000 83.5000 TC 30 21.7824 83.9722 1 9 286
1934260N20089 1934 55 NI BB NOT_NAMED 1934-09-21 03:00:00 TS 21.9537 83.2887 main 0 0 _________PO___ -1 22.0073 83.0774 TC 30 21.9000 83.5000 1 8 285
1934260N20089 1934 55 NI BB NOT_NAMED 1934-09-21 06:00:00 TS 22.0533 82.8903 main 0 0 _________OP___ -1 22.1000 82.7000 TC 30 22.0066 83.0806 1 7 286
1934260N20089 1934 55 NI BB NOT_NAMED 1934-09-21 09:00:00 TS 22.1533 82.5198 main 0 0 _________PP___ -1 22.1999 82.3424 TC 30 22.1068 82.6971 1 7 287
1934260N20089 1934 55 NI BB NOT_NAMED 1934-09-21 12:00:00 TS 22.2518 82.1700 main 0 0 _________OP___ -1 22.3000 82.0000 TC 30 22.2036 82.3400 1 7 287
1934260N20089 1934 55 NI BB NOT_NAMED 1934-09-21 15:00:00 TS 22.3500 81.8212 main 0 0 _________PO___ -1 22.4000 81.6425 TC 30 22.3000 82.0000 1 7 287
1934260N20089 1934 55 NI BB NOT_NAMED 1934-09-21 18:00:00 TS 22.4540 81.4722 main 0 0 _________OP___ -1 22.5000 81.3000 TC 30 22.4080 81.6444 1 7 289
1934260N20089 1934 55 NI BB NOT_NAMED 1934-09-21 21:00:00 TS 22.5612 81.1450 main 0 0 _________PP___ -1 22.6074 80.9850 TC 30 22.5149 81.3051 1 6 289
1934260N20089 1934 55 NI BB NOT_NAMED 1934-09-22 00:00:00 TS 22.6572 80.8441 main 0 0 _________OP___ -1 22.7000 80.7000 TC 30 22.6143 80.9882 1 6 287
1934260N20089 1934 55 NI BB NOT_NAMED 1934-09-22 03:00:00 TS 22.7287 80.5675 main 0 0 _________PO___ -1 22.7575 80.4349 TC 30 22.7000 80.7000 1 5 284
1934260N20089 1934 55 NI BB NOT_NAMED 1934-09-22 06:00:00 TS 22.7800 80.3189 main 0 0 _________OP___ -1 22.8000 80.2000 TC 30 22.7600 80.4379 1 4 283
1934260N20089 1934 55 NI BB NOT_NAMED 1934-09-22 09:00:00 TS 22.8286 80.0986 main 0 0 _________PP___ -1 22.8499 79.9925 TC 30 22.8072 80.2047 1 4 284
1934260N20089 1934 55 NI BB NOT_NAMED 1934-09-22 12:00:00 TS 22.8754 79.8971 main 0 0 _________OP___ -1 22.9000 79.8000 TC 30 22.8507 79.9942 1 4 284
1934260N20089 1934 55 NI BB NOT_NAMED 1934-09-22 15:00:00 TS 22.9212 79.6962 main 0 0 _________PO___ -1 22.9425 79.5925 TC 30 22.9000 79.8000 1 4 287
1934260N20089 1934 55 NI BB NOT_NAMED 1934-09-22 18:00:00 TS 22.9783 79.5237 main 0 0 _________OP___ -1 23.0000 79.4000 TC 30 22.9620 79.6165 1 3 294
1934260N20089 1934 55 NI BB NOT_NAMED 1934-09-22 21:00:00 TS 23.0571 79.3602 main 0 0 _________PP___ -1 23.0900 79.2401 TC 30 23.0352 79.4403 1 3 300
1934260N20089 1934 55 NI BB NOT_NAMED 1934-09-23 00:00:00 TS 23.1439 79.2127 main 0 0 _________OP___ -1 23.2000 79.1000 TC 30 23.1158 79.2690 1 3 301
1934260N20089 1934 55 NI BB NOT_NAMED 1934-09-23 03:00:00 NR 23.2000 79.1000 main 0 __________O___ -1 TC 23.2000 79.1000 1 2 298

About IBTrACS Database

This database is a web-friendly format of International Best Track Archive for Climate Stewardship (IBTrACS), a global best track data archive curated by NOAA dating back to 1842.

Updated: 2021-12-03